Terminal Aerodrome Forecast
Issued by NWS Brownsville, TX

Home | Current Version | Previous Version | Text Only | Print | Product List | Glossary On
Versions: 1 2 3 4 5 6 7 8 9 10 11 12 13 14 15 16 17 18 19 20 21 22 23 24
000
FTUS44 KBRO 172300
TAFBRO
TAF
KBRO 172320Z 1800/1824 15012G18KT P6SM SCT040 SCT250
     FM180200 14007KT P6SM SCT250
     FM181000 15006KT P6SM FEW020
     FM181500 16010G15KT P6SM BKN030=

USA.gov is the U.S. government's official web portal to all federal, state and local government web resources and services.